createdAt,value
2023-05-19T00:02:36.162Z,97943.00
2023-05-19T00:06:39.313Z,97933.19
2023-05-19T00:10:42.723Z,97939.66
2023-05-19T00:14:47.326Z,97934.44
2023-05-19T00:18:50.148Z,97931.91
2023-05-19T00:22:52.846Z,97930.66
2023-05-19T00:26:55.632Z,97940.41
2023-05-19T00:30:59.672Z,97929.34
2023-05-19T00:35:02.324Z,97922.66
2023-05-19T00:39:05.110Z,97927.16
2023-05-19T00:43:08.457Z,97911.31
2023-05-19T00:47:12.499Z,97911.06
2023-05-19T00:51:17.155Z,97918.28
2023-05-19T00:55:21.156Z,97910.16
2023-05-19T00:59:23.815Z,97910.97
2023-05-19T01:03:30.922Z,97905.31
2023-05-19T01:07:34.280Z,97909.84
2023-05-19T01:11:36.905Z,97911.84
2023-05-19T01:15:52.428Z,97909.13
2023-05-19T01:20:06.669Z,97895.75
2023-05-19T01:24:24.170Z,97903.00
2023-05-19T01:28:54.128Z,97901.53
2023-05-19T01:33:01.588Z,97893.25
2023-05-19T01:37:06.416Z,97896.16
2023-05-19T01:41:10.650Z,97892.63
2023-05-19T01:45:13.966Z,97897.16
2023-05-19T01:49:17.980Z,97896.53
2023-05-19T01:53:20.568Z,97895.50
2023-05-19T01:57:32.323Z,97884.72
2023-05-19T02:01:39.982Z,97886.81
2023-05-19T02:05:53.610Z,97884.75
2023-05-19T02:10:05.756Z,97884.56
2023-05-19T02:14:14.696Z,97877.50
2023-05-19T02:18:20.377Z,97884.38
2023-05-19T02:22:24.367Z,97879.97
2023-05-19T02:26:27.051Z,97876.91
2023-05-19T02:30:31.762Z,97874.84
2023-05-19T02:34:34.732Z,97871.34
2023-05-19T02:38:38.699Z,97878.88
2023-05-19T02:42:41.303Z,97874.50
2023-05-19T02:46:44.111Z,97870.97
2023-05-19T02:50:46.795Z,97871.97
2023-05-19T02:54:51.293Z,97873.22
2023-05-19T02:58:53.898Z,97870.72
2023-05-19T03:02:56.556Z,97873.81
2023-05-19T03:06:59.232Z,97865.28
2023-05-19T03:11:03.283Z,97864.03
2023-05-19T03:15:06.949Z,97860.50
2023-05-19T03:19:09.933Z,97863.41
2023-05-19T03:23:12.708Z,97866.28
2023-05-19T03:27:16.825Z,97870.03
2023-05-19T03:31:19.784Z,97882.31
2023-05-19T03:35:22.494Z,97875.44
2023-05-19T03:39:25.128Z,97873.56
2023-05-19T03:43:29.169Z,97872.94
2023-05-19T03:47:32.566Z,97870.69
2023-05-19T03:51:36.600Z,97880.06
2023-05-19T03:55:40.142Z,97879.00
2023-05-19T03:59:44.160Z,97886.47
2023-05-19T04:03:46.921Z,97883.97
2023-05-19T04:07:49.591Z,97890.16
2023-05-19T04:11:52.195Z,97884.56
2023-05-19T04:15:56.361Z,97885.19
2023-05-19T04:19:59.047Z,97882.75
2023-05-19T04:24:01.767Z,97886.53
2023-05-19T04:28:04.562Z,97881.50
2023-05-19T04:32:09.208Z,97871.50
2023-05-19T04:36:13.774Z,97871.69
2023-05-19T04:40:17.445Z,97872.31
2023-05-19T04:44:20.514Z,97876.72
2023-05-19T04:48:24.677Z,97882.78
2023-05-19T04:52:27.874Z,97876.19
2023-05-19T04:56:30.637Z,97878.06
2023-05-19T05:00:35.876Z,97880.19
2023-05-19T05:04:42.617Z,97871.97
2023-05-19T05:08:45.354Z,97868.91
2023-05-19T05:12:48.461Z,97864.97
2023-05-19T05:16:51.914Z,97866.47
2023-05-19T05:20:56.593Z,97861.94
2023-05-19T05:24:59.782Z,97863.19
2023-05-19T05:29:02.622Z,97867.38
2023-05-19T05:33:05.379Z,97855.13
2023-05-19T05:37:09.483Z,97855.59
2023-05-19T05:41:12.182Z,97853.94
2023-05-19T05:45:14.887Z,97859.81
2023-05-19T05:49:18.115Z,97857.53
2023-05-19T05:53:23.144Z,97864.84
2023-05-19T05:57:25.804Z,97865.88
2023-05-19T06:01:31.866Z,97860.47
2023-05-19T06:05:35.822Z,97856.09
2023-05-19T06:09:39.830Z,97855.28
2023-05-19T06:13:42.516Z,97860.47
2023-05-19T06:17:45.239Z,97860.66
2023-05-19T06:21:47.950Z,97857.94
2023-05-19T06:25:51.981Z,97860.44
2023-05-19T06:29:54.851Z,97855.44
2023-05-19T06:33:57.486Z,97859.38
2023-05-19T06:38:00.175Z,97855.78
2023-05-19T06:42:04.440Z,97850.22
2023-05-19T06:46:07.100Z,97835.56
2023-05-19T06:50:11.165Z,97845.88
2023-05-19T06:54:16.113Z,97844.44
2023-05-19T06:58:20.396Z,97852.63
2023-05-19T07:02:23.172Z,97852.50
2023-05-19T07:06:26.085Z,97851.59
2023-05-19T07:10:29.018Z,97836.50
2023-05-19T07:14:33.073Z,97840.06
2023-05-19T07:18:35.855Z,97835.84
2023-05-19T07:22:39.670Z,97834.31
2023-05-19T07:26:42.668Z,97839.06
2023-05-19T07:30:46.647Z,97836.69
2023-05-19T07:34:49.330Z,97839.25
2023-05-19T07:38:52.189Z,97833.72
2023-05-19T07:42:54.832Z,97840.91
2023-05-19T07:46:59.109Z,97840.06
2023-05-19T07:51:01.717Z,97836.91
2023-05-19T07:55:05.138Z,97838.94
2023-05-19T07:59:08.261Z,97838.25
2023-05-19T08:03:13.357Z,97834.88
2023-05-19T08:07:16.257Z,97825.34
2023-05-19T08:11:18.964Z,97824.13
2023-05-19T08:15:21.873Z,97826.16
2023-05-19T08:19:26.976Z,97826.16
2023-05-19T08:23:30.135Z,97823.44
2023-05-19T08:27:32.832Z,97818.97
2023-05-19T08:31:35.532Z,97808.19
2023-05-19T08:35:39.620Z,97811.41
2023-05-19T08:39:43.113Z,97808.50
2023-05-19T08:43:45.830Z,97813.03
2023-05-19T08:47:48.544Z,97802.44
2023-05-19T08:52:01.418Z,97802.72
2023-05-19T08:56:11.257Z,97804.50
2023-05-19T09:00:15.885Z,97795.03
2023-05-19T09:04:18.713Z,97779.47
2023-05-19T09:08:22.781Z,97783.44
2023-05-19T09:12:25.506Z,97786.03
2023-05-19T09:16:30.249Z,97792.19
2023-05-19T09:20:33.183Z,97783.47
2023-05-19T09:24:39.093Z,97780.34
2023-05-19T09:28:41.952Z,97789.97
2023-05-19T09:32:44.821Z,97776.13
2023-05-19T09:36:49.483Z,97774.34
2023-05-19T09:40:54.103Z,97760.66
2023-05-19T09:45:01.833Z,97760.88
2023-05-19T09:49:10.311Z,97747.34
2023-05-19T09:53:14.958Z,97749.25
2023-05-19T09:57:18.949Z,97756.50
2023-05-19T10:01:22.243Z,97752.91
2023-05-19T10:05:25.585Z,97747.09
2023-05-19T10:09:30.514Z,97743.28
2023-05-19T10:13:39.087Z,97740.53
2023-05-19T10:17:43.446Z,97740.47
2023-05-19T10:21:47.078Z,97741.88
2023-05-19T10:25:52.150Z,97735.59
2023-05-19T10:30:00.178Z,97724.84
2023-05-19T10:34:31.327Z,97717.88
2023-05-19T10:38:40.219Z,97718.53
2023-05-19T10:42:55.062Z,97707.41
2023-05-19T10:46:59.307Z,97707.06
2023-05-19T10:51:02.054Z,97705.81
2023-05-19T10:55:05.305Z,97713.50
2023-05-19T10:59:08.822Z,97708.81
2023-05-19T11:03:15.994Z,97713.47
2023-05-19T11:07:20.536Z,97708.97
2023-05-19T11:11:23.616Z,97700.34
2023-05-19T11:15:28.206Z,97683.41
2023-05-19T11:19:33.759Z,97678.84
2023-05-19T11:23:41.167Z,97685.34
2023-05-19T11:27:47.416Z,97681.16
2023-05-19T11:31:50.588Z,97683.19
2023-05-19T11:35:57.930Z,97685.28
2023-05-19T11:40:03.121Z,97682.28
2023-05-19T11:44:11.041Z,97670.47
2023-05-19T11:48:14.025Z,97678.34
2023-05-19T11:52:18.090Z,97676.56
2023-05-19T11:56:21.481Z,97680.41
2023-05-19T12:00:25.044Z,97683.16
2023-05-19T12:04:27.659Z,97675.06
2023-05-19T12:08:31.974Z,97677.78
2023-05-19T12:12:35.984Z,97679.53
2023-05-19T12:16:38.780Z,97674.78
2023-05-19T12:20:42.030Z,97659.03
2023-05-19T12:24:48.227Z,97661.47
2023-05-19T12:28:52.738Z,97650.53
2023-05-19T12:32:56.901Z,97654.34
2023-05-19T12:37:00.589Z,97641.72
2023-05-19T12:41:05.437Z,97641.34
2023-05-19T12:45:09.434Z,97646.06
2023-05-19T12:49:12.550Z,97636.75
2023-05-19T12:53:16.182Z,97633.47
2023-05-19T12:57:22.011Z,97637.56
2023-05-19T13:01:25.385Z,97630.72
2023-05-19T13:05:29.056Z,97628.53
2023-05-19T13:09:35.044Z,97630.59
2023-05-19T13:13:39.002Z,97630.84
2023-05-19T13:17:42.055Z,97633.53
2023-05-19T13:21:47.365Z,97630.53
2023-05-19T13:25:50.684Z,97613.56
2023-05-19T13:29:54.694Z,97628.53
2023-05-19T13:33:57.413Z,97615.59
2023-05-19T13:38:00.067Z,97622.19
2023-05-19T13:42:03.007Z,97623.84
2023-05-19T13:46:07.161Z,97614.22
2023-05-19T13:50:11.020Z,97605.94
2023-05-19T13:54:13.658Z,97603.75
2023-05-19T13:58:17.073Z,97602.41
2023-05-19T14:02:22.045Z,97604.59
2023-05-19T14:06:24.883Z,97605.97
2023-05-19T14:10:27.863Z,97598.31
2023-05-19T14:14:30.810Z,97593.09
2023-05-19T14:18:35.947Z,97580.38
2023-05-19T14:22:38.606Z,97590.22
2023-05-19T14:26:41.743Z,97596.75
2023-05-19T14:30:44.981Z,97584.59
2023-05-19T14:34:52.726Z,97587.56
2023-05-19T14:38:55.395Z,97580.94
2023-05-19T14:42:58.038Z,97577.44
2023-05-19T14:47:02.023Z,97577.63
2023-05-19T14:51:06.237Z,97582.09
2023-05-19T14:55:09.651Z,97580.16
2023-05-19T14:59:12.296Z,97585.31
2023-05-19T15:03:14.976Z,97584.06
2023-05-19T15:07:19.343Z,97583.53
2023-05-19T15:11:22.473Z,97593.38
2023-05-19T15:15:25.097Z,97591.97
2023-05-19T15:19:27.978Z,97587.50
2023-05-19T15:23:32.176Z,97592.50
2023-05-19T15:27:35.654Z,97589.72
2023-05-19T15:31:38.624Z,97582.47
2023-05-19T15:35:41.373Z,97576.75
2023-05-19T15:39:45.530Z,97583.38
2023-05-19T15:43:48.187Z,97571.50
2023-05-19T15:47:50.850Z,97575.94
2023-05-19T15:51:53.506Z,97579.50
2023-05-19T15:55:57.817Z,97567.75
2023-05-19T16:00:00.576Z,97569.94
2023-05-19T16:04:04.001Z,97569.00
2023-05-19T16:08:08.705Z,97572.97
2023-05-19T16:12:12.893Z,97562.19
2023-05-19T16:16:15.825Z,97563.84
2023-05-19T16:20:18.703Z,97556.47
2023-05-19T16:24:21.328Z,97545.44
2023-05-19T16:28:25.457Z,97552.28
2023-05-19T16:32:28.230Z,97552.03
2023-05-19T16:36:31.885Z,97546.28
2023-05-19T16:40:35.057Z,97547.44
2023-05-19T16:44:39.369Z,97546.81
2023-05-19T16:48:42.109Z,97549.03
2023-05-19T16:52:44.923Z,97543.06
2023-05-19T16:56:47.554Z,97541.28
2023-05-19T17:00:53.663Z,97539.34
2023-05-19T17:04:56.396Z,97532.97
2023-05-19T17:08:59.059Z,97535.75
2023-05-19T17:13:01.864Z,97541.38
2023-05-19T17:17:06.166Z,97543.94
2023-05-19T17:21:08.866Z,97541.38
2023-05-19T17:25:11.757Z,97541.81
2023-05-19T17:29:14.416Z,97542.78
2023-05-19T17:33:18.486Z,97543.25
2023-05-19T17:37:23.484Z,97537.59
2023-05-19T17:41:26.342Z,97537.00
2023-05-19T17:45:29.025Z,97547.97
2023-05-19T17:49:33.007Z,97550.56
2023-05-19T17:53:36.697Z,97547.97
2023-05-19T17:57:41.889Z,97537.91
2023-05-19T18:01:45.327Z,97545.28
2023-05-19T18:05:50.407Z,97547.28
2023-05-19T18:09:56.200Z,97543.34
2023-05-19T18:13:58.818Z,97552.56
2023-05-19T18:18:03.011Z,97555.22
2023-05-19T18:22:07.360Z,97550.59
2023-05-19T18:26:11.362Z,97561.41
2023-05-19T18:30:14.511Z,97547.09
2023-05-19T18:34:17.148Z,97555.53
2023-05-19T18:38:23.620Z,97552.88
2023-05-19T18:42:26.273Z,97550.50
2023-05-19T18:46:29.869Z,97552.22
2023-05-19T18:50:32.763Z,97557.56
2023-05-19T18:54:37.585Z,97545.88
2023-05-19T18:58:40.179Z,97558.56
2023-05-19T19:02:43.060Z,97564.53
2023-05-19T19:06:45.823Z,97558.59
2023-05-19T19:10:51.620Z,97565.97
2023-05-19T19:14:54.811Z,97567.94
2023-05-19T19:18:57.483Z,97574.22
2023-05-19T19:23:01.944Z,97574.00
2023-05-19T19:27:06.530Z,97571.78
2023-05-19T19:31:09.230Z,97574.75
2023-05-19T19:35:12.263Z,97588.72
2023-05-19T19:39:15.052Z,97582.31
2023-05-19T19:43:19.080Z,97589.06
2023-05-19T19:47:21.861Z,97585.63
2023-05-19T19:51:24.841Z,97587.78
2023-05-19T19:55:28.799Z,97575.44
2023-05-19T19:59:32.814Z,97577.56
2023-05-19T20:03:36.456Z,97582.69
2023-05-19T20:07:39.224Z,97593.44
2023-05-19T20:11:41.900Z,97586.22
2023-05-19T20:15:47.136Z,97583.28
2023-05-19T20:19:49.864Z,97580.19
2023-05-19T20:23:52.670Z,97583.50
2023-05-19T20:27:55.426Z,97579.00
2023-05-19T20:31:59.467Z,97591.53
2023-05-19T20:36:02.078Z,97582.31
2023-05-19T20:40:05.682Z,97583.59
2023-05-19T20:44:10.248Z,97579.81
2023-05-19T20:48:15.683Z,97582.41
2023-05-19T20:52:19.390Z,97577.09
2023-05-19T20:56:23.078Z,97575.41
2023-05-19T21:00:25.866Z,97570.69
2023-05-19T21:04:30.854Z,97570.09
2023-05-19T21:08:33.531Z,97570.22
2023-05-19T21:12:36.155Z,97566.06
2023-05-19T21:16:39.284Z,97568.41
2023-05-19T21:20:43.310Z,97567.34
2023-05-19T21:24:46.017Z,97577.47
2023-05-19T21:28:48.709Z,97575.28
2023-05-19T21:32:51.790Z,97570.78
2023-05-19T21:36:55.836Z,97569.97
2023-05-19T21:40:58.658Z,97570.06
2023-05-19T21:45:01.944Z,97574.75
2023-05-19T21:49:06.378Z,97579.22
2023-05-19T21:53:11.621Z,97572.81
2023-05-19T21:57:14.414Z,97580.59
2023-05-19T22:01:17.099Z,97562.03
2023-05-19T22:05:19.781Z,97569.81
2023-05-19T22:09:23.949Z,97562.28
2023-05-19T22:13:26.684Z,97556.63
2023-05-19T22:17:29.944Z,97566.19
2023-05-19T22:21:33.205Z,97560.53
2023-05-19T22:25:37.243Z,97555.31
2023-05-19T22:29:39.922Z,97551.56
2023-05-19T22:33:42.744Z,97556.13
2023-05-19T22:37:45.420Z,97550.47
2023-05-19T22:41:49.444Z,97541.34
2023-05-19T22:45:52.147Z,97545.81
2023-05-19T22:49:55.676Z,97529.25
2023-05-19T22:53:59.886Z,97534.09
2023-05-19T22:58:03.979Z,97534.41
2023-05-19T23:02:06.913Z,97538.25
2023-05-19T23:06:09.781Z,97536.28
2023-05-19T23:10:12.767Z,97535.19
2023-05-19T23:14:18.475Z,97528.56
2023-05-19T23:18:21.316Z,97528.16
2023-05-19T23:22:24.139Z,97520.69
2023-05-19T23:26:27.511Z,97513.25
2023-05-19T23:30:33.139Z,97528.81
2023-05-19T23:34:36.140Z,97521.16
2023-05-19T23:38:38.844Z,97516.63
2023-05-19T23:42:41.596Z,97508.88
2023-05-19T23:46:45.704Z,97508.63
2023-05-19T23:50:48.832Z,97507.22
2023-05-19T23:54:52.159Z,97500.59
2023-05-19T23:58:55.009Z,97510.22
